Kezdőlap
METAR-TAF:

METAR-TAF

Repülőterek :

Harbin, Kína

földrajzi szélesség: 45-45N, földrajzi hosszúság: 126-46E, magasság: 143 m

Jelenlegi meteorológiai megfigyelések

A jelentés 26 perccel ezelõtt készült, 06:00 UTC
Észak-északkeleti szél 12 kt
Hőmérséklet -8°C
Páratartalom 57%
Légköri nyomás 1021 hPa
Látótávolság 10 km, vagy több
felhőtlen 1500 m magasságban, és nincs gomolyfelhõ

METAR: ZYHB 230600Z 02006MPS CAVOK M08/M15 Q1021 NOSIG

Idő: 14:26 (06:26 UTC)

Előrejelzés

A jelentés 3 órával és 25 perccel ezelõtt készült, 03:01 UTC
Az előrejelzés 23-én 06 óra UTC és 24-én 06 óra UTC között érvényes
Észak-északkeleti szél 8 kt
Látótávolság: 5000 m
Szórványos felhőzet 3000 lábon
füst

TAF: ZYHB 230301Z 2306/2406 02004MPS 5000 FU SCT030 TXM07/06Z TNM21/22Z

Meteorológiai megfigyelések és előrejelzések több, mint 4000 repülőtéren (METAR és TAF jelentéseket).

A térképen piros és sárga pontok jelzik az elérhető meteorológiai állomásokat.

Mozgassa az egeret a pont fölött, hogy megjelenjen az állomás neve.

Azután kattintson az időjárási megfigyelések és előrejelzések megtekintéséhez.

A térkép megváltoztatása: kattintson a fekete keresztel jelölt zöld gombra ráközelítéshez, a vonallal jelölt zöld gombra távolításhoz, vagy a zöld nyilakra a szomszédos térképek eléréséhez.


METAR-TAF: